Arrowhead, Minnesota
Current Conditions -  °F | °C
As of 12:17 AM on Tuesday 21 Oct 2014 (Local Time) from KCOQ Reporting Station
Overcast Overcast  
Wind Chill: 45°   Ceiling: 3100
Heat Index: 45°   Visibility: 10mi
Dew Point: 36°   Wind: 3mph
Humidity: 71%   Direction: 50°NE
Pressure: 30.11"   Gusts: NA
Location:  46.8211°N, 92.6871°W
Report Text: KCOQ 210517Z AUTO 05003KT 10SM OVC031 07/02 A3011 RMK AO2
Loading
Personal Weather Stations






























Interactive Weather Map
Tropical Storm Tracking
New forecast layout! Learn more

10-Day Weather Forecast

Advertisements
Track Severe Weather on mobile